Time;durP1;ratioP1;P1;durP2;ratioP2;P2;SDS_P1;SDS_P2;PMS_P1;PMS_P2;Temp;Humidity;BMP_temperature;BMP_pressure;BME280_temperature;BME280_humidity;BME280_pressure;Samples;Min_cycle;Max_cycle;Signal;HPM_P1;HPM_P2
2023/12/08 00:00:38;;;;;;;50.33;18.90;;;;;;;-0.29;100.00;101284.03;7395516;19;20154;-48
2023/12/08 00:03:08;;;;;;;54.80;19.00;;;;;;;-0.21;100.00;101288.19;7372183;19;20207;-47
2023/12/08 00:05:40;;;;;;;57.67;19.83;;;;;;;-0.28;100.00;101275.69;7396626;19;20890;-48
2023/12/08 00:08:10;;;;;;;49.40;18.33;;;;;;;-0.23;100.00;101261.78;7374066;19;20198;-48
2023/12/08 00:10:40;;;;;;;49.60;19.52;;;;;;;-0.25;100.00;101254.78;7395485;19;20146;-49
2023/12/08 00:13:07;;;;;;;44.30;16.13;;;;;;;-0.28;100.00;101245.25;7375784;19;20540;-52
2023/12/08 00:15:36;;;;;;;56.88;18.92;;;;;;;-0.34;100.00;101244.66;7398478;19;20185;-47
2023/12/08 00:18:06;;;;;;;53.35;18.73;;;;;;;-0.22;100.00;101230.59;7374249;19;20209;-47
2023/12/08 00:20:36;;;;;;;51.88;17.65;;;;;;;-0.32;100.00;101213.63;7397999;19;20153;-48
2023/12/08 00:23:08;;;;;;;51.28;18.52;;;;;;;-0.35;100.00;101190.53;7374234;19;20218;-47
2023/12/08 00:25:37;;;;;;;48.35;18.55;;;;;;;-0.42;100.00;101171.31;7397079;19;20149;-51
2023/12/08 00:28:08;;;;;;;56.50;19.35;;;;;;;-0.39;100.00;101167.28;7374216;19;20265;-48
2023/12/08 00:30:38;;;;;;;54.33;19.48;;;;;;;-0.26;100.00;101157.50;7396203;19;20149;-53
2023/12/08 00:33:07;;;;;;;57.03;20.65;;;;;;;-0.03;100.00;101148.56;7374390;19;20202;-48
2023/12/08 00:35:37;;;;;;;63.90;18.90;;;;;;;-0.02;100.00;101137.66;7396536;19;20139;-49
2023/12/08 00:38:09;;;;;;;55.47;19.92;;;;;;;-0.10;100.00;101118.31;7372855;19;20667;-52
2023/12/08 00:40:39;;;;;;;48.70;17.77;;;;;;;-0.14;100.00;101100.28;7396280;19;20181;-48
2023/12/08 00:43:10;;;;;;;57.58;19.35;;;;;;;-0.10;100.00;101093.84;7374187;19;20509;-48
2023/12/08 00:45:40;;;;;;;61.67;19.02;;;;;;;-0.20;100.00;101070.94;7395880;19;20139;-52
2023/12/08 00:48:10;;;;;;;63.25;21.55;;;;;;;-0.29;100.00;101060.84;7373956;19;20195;-50
2023/12/08 00:50:40;;;;;;;56.13;20.58;;;;;;;-0.32;100.00;101050.41;7398212;19;20504;-51
2023/12/08 00:53:12;;;;;;;55.47;20.75;;;;;;;-0.23;100.00;101048.72;7375451;19;20666;-53
2023/12/08 00:55:41;;;;;;;57.75;19.02;;;;;;;-0.16;100.00;101030.75;7395561;19;20198;-53
2023/12/08 00:58:11;;;;;;;48.80;19.98;;;;;;;-0.19;100.00;101017.81;7375486;19;20242;-50
2023/12/08 01:00:40;;;;;;;53.40;20.25;;;;;;;-0.16;100.00;101015.53;7397714;19;20141;-54
2023/12/08 01:03:10;;;;;;;50.00;18.48;;;;;;;-0.14;100.00;101003.88;7371712;19;20190;-54
2023/12/08 01:05:40;;;;;;;47.85;18.17;;;;;;;-0.42;100.00;100996.34;7398944;19;20135;-50
2023/12/08 01:08:12;;;;;;;52.60;18.85;;;;;;;-0.48;100.00;101005.03;7375774;19;20627;-52
2023/12/08 01:10:42;;;;;;;49.90;19.13;;;;;;;-0.52;100.00;101001.34;7398589;19;20138;-50
2023/12/08 01:13:11;;;;;;;60.22;18.98;;;;;;;-0.54;100.00;100997.78;7376336;19;20202;-50
2023/12/08 01:15:41;;;;;;;53.95;17.95;;;;;;;-0.54;100.00;100995.25;7398429;19;20157;-51
2023/12/08 01:18:11;;;;;;;49.25;18.55;;;;;;;-0.62;100.00;100988.59;7374803;19;20194;-53
2023/12/08 01:20:40;;;;;;;38.45;16.80;;;;;;;-0.64;100.00;100985.03;7397811;19;20146;-50
2023/12/08 01:23:13;;;;;;;57.35;16.55;;;;;;;-0.71;100.00;100981.94;7375691;19;20201;-52
2023/12/08 01:25:43;;;;;;;48.70;17.80;;;;;;;-0.72;100.00;100975.09;7399685;19;20667;-52
2023/12/08 01:28:12;;;;;;;43.10;16.40;;;;;;;-0.72;100.00;100982.69;7378301;19;20253;-52
2023/12/08 01:30:42;;;;;;;44.80;16.02;;;;;;;-0.63;100.00;100979.19;7401898;19;20825;-54
2023/12/08 01:33:11;;;;;;;50.10;16.92;;;;;;;-0.81;100.00;100971.72;7378465;19;20194;-55
2023/12/08 01:35:41;;;;;;;44.03;17.10;;;;;;;-0.78;100.00;100971.13;7400116;19;20135;-56
2023/12/08 01:38:15;;;;;;;46.53;16.85;;;;;;;-0.70;100.00;100970.16;7377884;19;20693;-55
2023/12/08 01:40:44;;;;;;;40.55;15.45;;;;;;;-0.77;100.00;100965.28;7403524;19;20156;-55
2023/12/08 01:43:14;;;;;;;43.97;17.38;;;;;;;-0.78;100.00;100958.44;7378476;19;20197;-53
2023/12/08 01:45:44;;;;;;;41.97;15.95;;;;;;;-0.70;100.00;100949.88;7402253;19;20161;-56
2023/12/08 01:48:14;;;;;;;48.33;17.42;;;;;;;-0.70;100.00;100940.66;7377151;19;20241;-54
2023/12/08 01:50:43;;;;;;;47.30;17.95;;;;;;;-0.73;100.00;100942.00;7398645;19;20181;-52
2023/12/08 01:53:16;;;;;;;44.20;16.05;;;;;;;-0.79;100.00;100939.81;7377263;19;20196;-54
2023/12/08 01:55:46;;;;;;;42.10;16.20;;;;;;;-0.83;100.00;100942.81;7396293;19;20153;-52
2023/12/08 01:58:16;;;;;;;48.40;17.38;;;;;;;-0.87;100.00;100945.84;7374513;19;20194;-51
2023/12/08 02:00:48;;;;;;;44.95;15.32;;;;;;;-0.78;100.00;100951.72;7394487;19;20139;-54
2023/12/08 02:03:18;;;;;;;45.33;16.98;;;;;;;-0.73;100.00;100953.03;7373662;19;20193;-55
2023/12/08 02:05:50;;;;;;;43.60;16.42;;;;;;;-0.68;100.00;100943.31;7394782;19;20670;-52
2023/12/08 02:08:22;;;;;;;44.42;17.02;;;;;;;-0.79;100.00;100929.69;7374481;19;20190;-49
2023/12/08 02:10:52;;;;;;;51.63;18.23;;;;;;;-0.70;100.00;100912.78;7395761;19;20139;-53
2023/12/08 02:13:21;;;;;;;46.03;16.85;;;;;;;-0.79;100.00;100901.81;7374053;19;20198;-54
2023/12/08 02:15:54;;;;;;;39.05;16.05;;;;;;;-0.82;100.00;100896.47;7395302;19;20154;-49
2023/12/08 02:18:24;;;;;;;46.28;16.65;;;;;;;-0.77;100.00;100887.63;7374855;19;20585;-54
2023/12/08 02:20:54;;;;;;;49.30;17.75;;;;;;;-0.83;100.00;100882.91;7395593;19;20154;-50
2023/12/08 02:23:26;;;;;;;41.38;17.40;;;;;;;-0.79;100.00;100879.00;7373574;19;20204;-52
2023/12/08 02:25:58;;;;;;;42.15;16.67;;;;;;;-0.76;100.00;100871.69;7395337;19;20156;-52
2023/12/08 02:28:28;;;;;;;44.13;16.25;;;;;;;-0.83;100.00;100867.69;7372801;19;20190;-52
2023/12/08 02:30:59;;;;;;;40.95;16.70;;;;;;;-0.87;100.00;100859.69;7394268;19;20202;-51
2023/12/08 02:33:32;;;;;;;49.28;17.70;;;;;;;-0.79;100.00;100873.03;7373174;19;20190;-53
2023/12/08 02:36:04;;;;;;;41.13;16.33;;;;;;;-0.80;100.00;100866.19;7389867;19;20138;-52
2023/12/08 02:38:35;;;;;;;41.75;16.00;;;;;;;-0.89;100.00;100864.63;7372805;19;20663;-51
2023/12/08 02:41:07;;;;;;;48.30;16.35;;;;;;;-0.93;100.00;100861.69;7394389;19;20139;-48
2023/12/08 02:43:37;;;;;;;43.53;16.45;;;;;;;-0.97;100.00;100858.84;7372830;19;20285;-47
2023/12/08 02:46:06;;;;;;;48.30;18.75;;;;;;;-0.91;100.00;100855.09;7394250;19;20221;-50
2023/12/08 02:48:36;;;;;;;45.70;15.73;;;;;;;-0.98;100.00;100846.94;7374813;19;20217;-53
2023/12/08 02:51:06;;;;;;;48.53;17.20;;;;;;;-0.94;100.00;100852.31;7394451;19;20146;-51
2023/12/08 02:53:36;;;;;;;51.78;18.35;;;;;;;-0.97;100.00;100838.59;7373940;19;20737;-51
2023/12/08 02:56:09;;;;;;;47.70;17.60;;;;;;;-1.06;100.00;100830.19;7394612;19;20150;-52
2023/12/08 02:58:39;;;;;;;42.55;15.25;;;;;;;-0.96;100.00;100827.69;7373954;19;20198;-50
2023/12/08 03:01:08;;;;;;;41.80;16.70;;;;;;;-0.97;100.00;100830.13;7395108;19;20447;-53
2023/12/08 03:03:38;;;;;;;42.97;16.50;;;;;;;-1.02;100.00;100838.94;7372333;19;20206;-51
2023/12/08 03:06:09;;;;;;;49.47;16.75;;;;;;;-1.06;100.00;100824.22;7397133;19;20226;-52
2023/12/08 03:08:39;;;;;;;45.58;14.85;;;;;;;-1.10;100.00;100817.97;7373730;19;20966;-49
2023/12/08 03:11:11;;;;;;;46.15;16.50;;;;;;;-1.07;100.00;100820.81;7394397;19;20139;-51
2023/12/08 03:13:40;;;;;;;36.22;14.13;;;;;;;-1.17;100.00;100808.06;7375042;19;20202;-50
2023/12/08 03:16:11;;;;;;;44.83;16.30;;;;;;;-1.13;100.00;100807.59;7398029;19;20153;-49
2023/12/08 03:18:40;;;;;;;47.63;16.60;;;;;;;-1.06;100.00;100792.19;7378403;19;20218;-51
2023/12/08 03:21:10;;;;;;;43.05;15.93;;;;;;;-1.16;100.00;100795.53;7400870;19;20654;-49
2023/12/08 03:23:40;;;;;;;41.45;15.15;;;;;;;-1.15;100.00;100796.41;7379603;19;20198;-48
2023/12/08 03:26:12;;;;;;;39.72;15.32;;;;;;;-1.04;100.00;100788.13;7401887;19;20611;-52
2023/12/08 03:28:41;;;;;;;46.15;16.27;;;;;;;-1.12;100.00;100784.03;7380857;19;20257;-49
2023/12/08 03:31:22;;;;;;;43.78;16.55;;;;;;;-1.14;100.00;100772.88;7400883;19;20143;-53
2023/12/08 03:33:52;;;;;;;49.08;16.38;;;;;;;-1.19;100.00;100771.59;7379659;19;20209;-50
2023/12/08 03:36:22;;;;;;;45.20;15.57;;;;;;;-1.14;100.00;100777.94;7402341;19;20262;-49
2023/12/08 03:38:52;;;;;;;45.45;15.75;;;;;;;-1.21;100.00;100771.44;7379763;19;20201;-48
2023/12/08 03:41:24;;;;;;;45.47;16.05;;;;;;;-1.26;100.00;100773.56;7401228;19;20143;-50
2023/12/08 03:43:54;;;;;;;36.95;15.50;;;;;;;-1.23;100.00;100778.03;7377604;19;20209;-53
2023/12/08 03:46:23;;;;;;;37.80;15.00;;;;;;;-1.14;100.00;100772.88;7400719;19;20207;-51
2023/12/08 03:48:53;;;;;;;46.17;17.85;;;;;;;-1.13;100.00;100765.41;7378224;19;20203;-50
2023/12/08 03:51:24;;;;;;;43.30;15.23;;;;;;;-1.14;100.00;100748.44;7394494;19;20160;-52
2023/12/08 03:53:54;;;;;;;42.13;16.13;;;;;;;-1.19;100.00;100728.53;7377692;19;20206;-53
2023/12/08 03:56:26;;;;;;;41.60;15.30;;;;;;;-1.23;100.00;100723.19;7400328;19;20163;-50
2023/12/08 03:58:55;;;;;;;42.40;16.00;;;;;;;-1.27;100.00;100716.06;7376985;19;20565;-50
2023/12/08 04:01:25;;;;;;;39.55;15.00;;;;;;;-1.15;100.00;100726.41;7399129;19;20147;-50
2023/12/08 04:03:55;;;;;;;44.78;16.10;;;;;;;-1.26;100.00;100717.88;7374901;19;20273;-51
2023/12/08 04:06:24;;;;;;;41.80;16.60;;;;;;;-1.17;100.00;100724.50;7400381;19;20146;-50
2023/12/08 04:08:54;;;;;;;44.47;16.67;;;;;;;-1.00;100.00;100737.00;7377878;19;20210;-53
2023/12/08 04:11:29;;;;;;;44.67;16.08;;;;;;;-1.14;100.00;100747.53;7401386;19;20145;-50
2023/12/08 04:13:58;;;;;;;36.47;15.07;;;;;;;-1.12;100.00;100761.25;7376438;19;20213;-54
2023/12/08 04:16:28;;;;;;;41.33;17.17;;;;;;;-1.14;100.00;100752.59;7400362;19;20174;-51
2023/12/08 04:18:58;;;;;;;39.05;14.25;;;;;;;-1.11;100.00;100747.81;7377116;19;20200;-52
2023/12/08 04:21:27;;;;;;;41.40;15.55;;;;;;;-0.99;100.00;100745.47;7399382;19;20138;-52
2023/12/08 04:23:57;;;;;;;41.05;15.32;;;;;;;-1.06;100.00;100741.53;7377736;19;20209;-51
2023/12/08 04:26:29;;;;;;;43.30;16.35;;;;;;;-1.02;100.00;100743.56;7399007;19;20527;-52
2023/12/08 04:28:59;;;;;;;37.83;15.10;;;;;;;-1.14;100.00;100747.53;7377257;19;20195;-49
2023/12/08 04:31:28;;;;;;;38.85;14.75;;;;;;;-1.13;100.00;100749.34;7399509;19;20151;-52
2023/12/08 04:33:58;;;;;;;35.80;14.18;;;;;;;-1.15;100.00;100754.28;7375935;19;20198;-48
2023/12/08 04:36:27;;;;;;;36.97;16.00;;;;;;;-0.99;100.00;100746.38;7399143;19;20155;-53
2023/12/08 04:38:57;;;;;;;33.63;13.10;;;;;;;-1.10;100.00;100752.13;7377217;19;20562;-50
2023/12/08 04:41:29;;;;;;;37.80;14.27;;;;;;;-1.04;100.00;100740.00;7399147;19;20166;-52
2023/12/08 04:43:59;;;;;;;38.10;15.60;;;;;;;-0.90;100.00;100737.78;7376000;19;20567;-53
2023/12/08 04:46:28;;;;;;;37.42;13.93;;;;;;;-0.96;100.00;100725.50;7399798;19;20139;-51
2023/12/08 04:48:58;;;;;;;40.97;14.57;;;;;;;-0.93;100.00;100697.88;7376270;19;20202;-49
2023/12/08 04:51:28;;;;;;;42.88;14.82;;;;;;;-0.99;100.00;100707.47;7398962;19;20147;-49
2023/12/08 04:54:00;;;;;;;34.83;15.52;;;;;;;-0.89;100.00;100701.56;7376365;19;20225;-52
2023/12/08 04:56:32;;;;;;;35.20;14.63;;;;;;;-0.85;100.00;100693.50;7398132;19;20142;-51
2023/12/08 04:59:02;;;;;;;37.75;14.00;;;;;;;-0.93;100.00;100690.28;7374985;19;20585;-53
2023/12/08 05:01:33;;;;;;;38.97;15.52;;;;;;;-0.84;100.00;100697.78;7397995;19;20139;-53
2023/12/08 05:04:02;;;;;;;31.40;13.02;;;;;;;-0.93;100.00;100697.00;7373835;19;20266;-51
2023/12/08 05:06:32;;;;;;;33.85;13.38;;;;;;;-0.92;100.00;100681.06;7398473;19;20139;-51
2023/12/08 05:09:03;;;;;;;37.15;14.20;;;;;;;-0.86;100.00;100684.13;7375810;19;20578;-52
2023/12/08 05:11:35;;;;;;;39.63;14.30;;;;;;;-0.97;100.00;100686.59;7398009;19;20143;-52
2023/12/08 05:14:05;;;;;;;31.13;13.18;;;;;;;-0.98;100.00;100673.78;7374347;19;20307;-51
2023/12/08 05:16:34;;;;;;;39.78;14.65;;;;;;;-1.00;100.00;100663.53;7398017;19;20635;-47
2023/12/08 05:19:04;;;;;;;37.47;13.80;;;;;;;-0.93;100.00;100653.94;7374556;19;20190;-51
2023/12/08 05:21:34;;;;;;;35.28;14.52;;;;;;;-0.92;100.00;100653.19;7397090;19;20165;-49
2023/12/08 05:24:04;;;;;;;32.25;13.27;;;;;;;-0.91;100.00;100667.63;7373997;19;20603;-50
2023/12/08 05:26:36;;;;;;;34.88;12.32;;;;;;;-0.99;100.00;100675.44;7398109;19;20150;-51
2023/12/08 05:29:06;;;;;;;33.42;13.32;;;;;;;-0.93;100.00;100674.22;7374478;19;20190;-50
2023/12/08 05:31:35;;;;;;;32.33;13.10;;;;;;;-0.96;100.00;100657.97;7397321;19;20741;-50
2023/12/08 05:34:05;;;;;;;33.83;13.32;;;;;;;-0.83;100.00;100679.28;7373834;19;20206;-49
2023/12/08 05:36:35;;;;;;;34.08;12.63;;;;;;;-0.97;100.00;100681.53;7397365;19;20143;-53
2023/12/08 05:39:06;;;;;;;32.00;13.00;;;;;;;-1.04;100.00;100694.41;7374147;19;20194;-47
2023/12/08 05:41:38;;;;;;;33.53;12.52;;;;;;;-0.97;100.00;100686.59;7394354;19;20147;-51
2023/12/08 05:44:08;;;;;;;26.45;11.65;;;;;;;-0.94;100.00;100678.38;7374424;19;20237;-50
2023/12/08 05:46:37;;;;;;;32.78;14.40;;;;;;;-0.86;100.00;100684.97;7397737;19;20145;-48
2023/12/08 05:49:07;;;;;;;29.73;11.02;;;;;;;-0.98;100.00;100684.81;7375340;19;20281;-48
2023/12/08 05:51:37;;;;;;;31.13;11.82;;;;;;;-0.94;100.00;100688.50;7397874;19;20527;-49
2023/12/08 05:54:07;;;;;;;32.38;12.52;;;;;;;-0.96;100.00;100680.75;7372158;19;20663;-50
2023/12/08 05:56:39;;;;;;;32.90;12.45;;;;;;;-1.04;100.00;100691.03;7396739;19;20493;-50
2023/12/08 05:59:09;;;;;;;31.90;12.90;;;;;;;-1.00;100.00;100688.88;7373089;19;20218;-49
2023/12/08 06:01:38;;;;;;;32.03;13.40;;;;;;;-0.98;100.00;100689.88;7395622;19;20168;-49
2023/12/08 06:04:08;;;;;;;36.13;12.30;;;;;;;-0.97;100.00;100691.66;7371835;19;20206;-48
2023/12/08 06:06:37;;;;;;;34.50;13.55;;;;;;;-0.86;100.00;100684.13;7397241;19;20214;-53
2023/12/08 06:09:09;;;;;;;35.42;12.63;;;;;;;-0.93;100.00;100684.34;7373573;19;20563;-52
2023/12/08 06:11:42;;;;;;;33.40;12.65;;;;;;;-0.88;100.00;100683.97;7395871;19;20143;-49
2023/12/08 06:14:11;;;;;;;34.28;14.45;;;;;;;-0.96;100.00;100688.38;7371787;19;20678;-50
2023/12/08 06:16:41;;;;;;;35.20;12.70;;;;;;;-1.00;100.00;100688.88;7396145;19;20143;-48
2023/12/08 06:19:11;;;;;;;32.35;13.77;;;;;;;-0.93;100.00;100686.88;7373640;19;20579;-50
2023/12/08 06:21:41;;;;;;;37.22;12.75;;;;;;;-0.98;100.00;100694.97;7396792;19;20156;-50
2023/12/08 06:24:11;;;;;;;36.50;14.00;;;;;;;-0.98;100.00;100694.97;7371133;19;20274;-48
2023/12/08 06:26:43;;;;;;;36.88;14.55;;;;;;;-0.99;100.00;100689.75;7395632;19;20143;-51
2023/12/08 06:29:13;;;;;;;34.88;15.25;;;;;;;-0.89;100.00;100697.41;7371308;19;20200;-52
2023/12/08 06:31:42;;;;;;;40.88;14.45;;;;;;;-0.92;100.00;100688.66;7394670;19;20765;-49
2023/12/08 06:34:12;;;;;;;38.88;14.80;;;;;;;-0.84;100.00;100698.69;7371460;19;20253;-49
2023/12/08 06:36:47;;;;;;;39.58;14.40;;;;;;;-0.83;100.00;100699.56;7396908;19;20143;-50
2023/12/08 06:39:18;;;;;;;39.58;15.15;;;;;;;-0.91;100.00;100701.47;7372744;19;20194;-50
2023/12/08 06:41:50;;;;;;;42.00;15.95;;;;;;;-0.87;100.00;100692.47;7395118;19;20154;-51
2023/12/08 06:44:20;;;;;;;36.63;15.50;;;;;;;-0.81;100.00;100690.47;7371117;19;20202;-50
2023/12/08 06:46:49;;;;;;;38.67;15.48;;;;;;;-0.80;100.00;100681.22;7393849;19;20207;-50
2023/12/08 06:49:19;;;;;;;36.33;13.65;;;;;;;-0.75;100.00;100680.88;7367230;19;20274;-48
2023/12/08 06:51:49;;;;;;;46.17;16.50;;;;;;;-0.81;100.00;100677.81;7393339;19;20167;-46
2023/12/08 06:54:18;;;;;;;42.95;15.05;;;;;;;-0.85;100.00;100673.22;7374949;19;20204;-49
2023/12/08 06:56:51;;;;;;;52.55;18.50;;;;;;;-0.79;100.00;100671.22;7399573;19;20142;-51
2023/12/08 06:59:21;;;;;;;37.78;14.63;;;;;;;-0.78;100.00;100665.38;7376351;19;20186;-49
2023/12/08 07:01:50;;;;;;;38.10;15.43;;;;;;;-0.79;100.00;100656.00;7400552;19;20233;-52
2023/12/08 07:04:20;;;;;;;47.15;17.80;;;;;;;-0.72;100.00;100653.25;7375639;19;20239;-47
2023/12/08 07:06:50;;;;;;;53.17;18.60;;;;;;;-0.71;100.00;100639.81;7402339;19;20162;-50
2023/12/08 07:09:19;;;;;;;53.15;18.75;;;;;;;-0.74;100.00;100629.44;7377345;19;20188;-51
2023/12/08 07:11:51;;;;;;;43.33;16.90;;;;;;;-0.64;100.00;100637.78;7398376;19;20162;-48
2023/12/08 07:14:22;;;;;;;67.93;23.05;;;;;;;-0.65;100.00;100636.03;7377736;19;20194;-52
2023/12/08 07:16:51;;;;;;;48.65;18.20;;;;;;;-0.62;100.00;100638.84;7399445;19;20174;-51
2023/12/08 07:19:21;;;;;;;45.90;16.52;;;;;;;-0.71;100.00;100629.66;7378390;19;20254;-48
2023/12/08 07:21:51;;;;;;;44.08;17.02;;;;;;;-0.54;100.00;100637.81;7398707;19;20600;-49
2023/12/08 07:24:20;;;;;;;56.90;20.27;;;;;;;-0.51;100.00;100633.00;7378162;19;20198;-50
2023/12/08 07:26:54;;;;;;;72.60;26.83;;;;;;;-0.53;100.00;100634.53;7399699;19;20564;-51
2023/12/08 07:29:41;;;;;;;60.97;20.98;;;;;;;-0.50;100.00;100628.81;7374157;19;20704;-52
2023/12/08 07:32:17;;;;;;;49.35;17.70;;;;;;;-0.56;100.00;100635.16;7377341;19;20135;-53
2023/12/08 07:34:47;;;;;;;47.72;18.13;;;;;;;-0.54;100.00;100637.81;7396117;19;20182;-50
2023/12/08 07:37:16;;;;;;;55.65;18.50;;;;;;;-0.50;100.00;100638.97;7380387;19;20218;-52
2023/12/08 07:39:46;;;;;;;42.00;17.50;;;;;;;-0.57;100.00;100642.63;7396056;19;20161;-50
2023/12/08 07:42:18;;;;;;;50.80;19.35;;;;;;;-0.51;100.00;100640.59;7377075;19;20157;-52
2023/12/08 07:44:48;;;;;;;45.03;17.10;;;;;;;-0.59;100.00;100639.06;7397874;19;20671;-52
2023/12/08 07:47:17;;;;;;;42.00;17.15;;;;;;;-0.45;100.00;100638.59;7377081;19;20143;-52
2023/12/08 07:49:47;;;;;;;202.23;54.13;;;;;;;-0.26;100.00;100640.13;7396951;19;20202;-53
2023/12/08 07:52:17;;;;;;;38.17;15.65;;;;;;;-0.41;100.00;100639.75;7377057;19;20149;-48
2023/12/08 07:54:47;;;;;;;44.10;16.13;;;;;;;-0.46;100.00;100631.75;7398593;19;20199;-51
2023/12/08 07:57:19;;;;;;;46.75;18.02;;;;;;;-0.36;100.00;100632.53;7375811;19;20178;-50
2023/12/08 07:59:49;;;;;;;58.78;22.05;;;;;;;-0.42;100.00;100628.72;7397473;19;20172;-52
2023/12/08 08:02:20;;;;;;;44.67;17.73;;;;;;;-0.38;100.00;100629.84;7374232;19;20175;-51
2023/12/08 08:04:49;;;;;;;104.03;32.30;;;;;;;-0.44;100.00;100625.19;7394827;19;20516;-49
2023/12/08 08:07:19;;;;;;;39.72;16.70;;;;;;;-0.45;100.00;100617.44;7378057;19;20143;-51
2023/12/08 08:09:49;;;;;;;44.88;16.60;;;;;;;-0.47;100.00;100604.63;7401129;19;20143;-52
2023/12/08 08:12:21;;;;;;;31.58;14.00;;;;;;;-0.52;100.00;100621.09;7378307;19;20143;-50
2023/12/08 08:14:50;;;;;;;39.72;16.08;;;;;;;-0.56;100.00;100614.88;7397613;19;20181;-48
2023/12/08 08:17:21;;;;;;;38.08;14.32;;;;;;;-0.55;100.00;100605.63;7377148;19;20135;-48
2023/12/08 08:19:51;;;;;;;39.28;16.77;;;;;;;-0.59;100.00;100616.25;7397466;19;20139;-49
2023/12/08 08:22:21;;;;;;;39.33;14.43;;;;;;;-0.58;100.00;100620.56;7376439;19;20150;-50
2023/12/08 08:25:01;;;;;;;38.80;15.75;;;;;;;-0.58;100.00;100616.41;7397520;19;20177;-47
2023/12/08 08:27:34;;;;;;;40.40;15.35;;;;;;;-0.54;100.00;100607.41;7374523;19;20207;-51
2023/12/08 08:30:05;;;;;;;46.40;18.05;;;;;;;-0.43;100.00;100613.38;7393914;19;20139;-48
2023/12/08 08:32:35;;;;;;;39.92;15.27;;;;;;;-0.36;100.00;100609.72;7375360;19;20285;-49
2023/12/08 08:35:05;;;;;;;36.33;16.10;;;;;;;-0.36;100.00;100602.97;7391529;19;20807;-47
2023/12/08 08:37:35;;;;;;;37.60;15.05;;;;;;;-0.37;100.00;100601.19;7373555;19;20274;-46
2023/12/08 08:40:05;;;;;;;44.50;18.05;;;;;;;-0.35;100.00;100599.69;7393271;19;20138;-47
2023/12/08 08:42:38;;;;;;;38.65;16.10;;;;;;;-0.34;100.00;100598.94;7371456;19;20254;-46
2023/12/08 08:45:06;;;;;;;55.60;19.58;;;;;;;-0.33;100.00;100603.25;7393470;19;20682;-48
2023/12/08 08:47:36;;;;;;;42.70;15.80;;;;;;;-0.31;100.00;100598.31;7373129;19;20751;-48
2023/12/08 08:50:06;;;;;;;38.50;16.88;;;;;;;-0.18;100.00;100603.63;7393162;19;20147;-46
2023/12/08 08:52:36;;;;;;;42.63;17.77;;;;;;;-0.15;100.00;100603.00;7373877;19;20220;-50
2023/12/08 08:55:07;;;;;;;47.80;18.20;;;;;;;-0.08;100.00;100595.13;7394792;19;20233;-47
2023/12/08 08:57:39;;;;;;;52.00;19.30;;;;;;;-0.15;100.00;100605.53;7372681;19;20274;-47
2023/12/08 09:00:12;;;;;;;42.28;16.52;;;;;;;-0.15;100.00;100601.31;7393247;19;20143;-48
2023/12/08 09:02:43;;;;;;;40.72;17.30;;;;;;;-0.09;100.00;100587.38;7371590;19;20194;-46
2023/12/08 09:05:14;;;;;;;47.15;18.48;;;;;;;0.00;100.00;100588.16;7393239;19;20166;-45
2023/12/08 09:07:43;;;;;;;131.63;40.90;;;;;;;-0.01;100.00;100593.97;7372600;19;20205;-45
2023/12/08 09:10:13;;;;;;;44.40;17.13;;;;;;;0.02;100.00;100590.78;7391040;19;20754;-46
2023/12/08 09:12:45;;;;;;;38.95;16.65;;;;;;;-0.04;100.00;100591.19;7372689;19;20202;-49
2023/12/08 09:15:15;;;;;;;43.17;17.60;;;;;;;-0.11;100.00;100587.25;7392778;19;20181;-44
2023/12/08 09:17:45;;;;;;;46.63;19.58;;;;;;;-0.06;100.00;100592.72;7371895;19;20266;-45
2023/12/08 09:20:15;;;;;;;96.00;29.80;;;;;;;0.09;100.00;100599.03;7392845;19;20604;-48
2023/12/08 09:22:44;;;;;;;42.05;15.68;;;;;;;0.08;100.00;100593.81;7372898;19;20198;-46
2023/12/08 09:25:14;;;;;;;60.17;21.20;;;;;;;0.13;100.00;100596.00;7392920;19;20568;-49
2023/12/08 09:27:46;;;;;;;63.47;21.83;;;;;;;0.11;100.00;100597.50;7372539;19;20698;-48
2023/12/08 09:30:16;;;;;;;44.25;17.40;;;;;;;0.17;100.00;100601.28;7392719;19;20151;-45
2023/12/08 09:32:47;;;;;;;36.42;15.15;;;;;;;0.16;100.00;100602.06;7369709;19;20257;-48
2023/12/08 09:35:16;;;;;;;61.45;24.17;;;;;;;0.15;100.00;100601.16;7391200;19;20201;-46
2023/12/08 09:37:46;;;;;;;62.20;21.92;;;;;;;0.20;100.00;100592.28;7371874;19;20314;-46
2023/12/08 09:40:17;;;;;;;66.30;25.60;;;;;;;0.34;100.00;100595.94;7393449;19;20941;-47
2023/12/08 09:42:55;;;;;;;51.13;20.58;;;;;;;0.33;100.00;100591.63;7369502;19;20190;-46
2023/12/08 09:45:24;;;;;;;38.20;16.63;;;;;;;0.30;100.00;100595.56;7392963;19;20182;-49
2023/12/08 09:47:56;;;;;;;35.65;16.30;;;;;;;0.11;100.00;100586.47;7364205;19;21007;-46
2023/12/08 09:50:26;;;;;;;36.88;16.05;;;;;;;0.08;100.00;100583.69;7393043;19;20161;-45
2023/12/08 09:52:56;;;;;;;36.80;16.33;;;;;;;0.00;100.00;100572.94;7369996;19;20265;-43
2023/12/08 09:55:26;;;;;;;40.95;16.33;;;;;;;-0.07;100.00;100565.56;7392499;19;20195;-44
2023/12/08 09:57:58;;;;;;;38.47;16.73;;;;;;;-0.08;100.00;100566.31;7370403;19;20186;-44
2023/12/08 10:00:28;;;;;;;40.75;17.50;;;;;;;-0.10;100.00;100562.78;7391891;19;20554;-45
2023/12/08 10:02:58;;;;;;;35.70;15.40;;;;;;;-0.14;100.00;100559.97;7369330;19;20662;-44
2023/12/08 10:05:27;;;;;;;35.78;15.27;;;;;;;-0.10;100.00;100550.09;7392691;19;20439;-42
2023/12/08 10:07:58;;;;;;;34.85;14.85;;;;;;;-0.12;100.00;100554.16;7369175;19;20270;-44
2023/12/08 10:10:27;;;;;;;36.33;15.13;;;;;;;-0.18;100.00;100542.75;7390777;19;20160;-44
2023/12/08 10:13:00;;;;;;;35.60;13.82;;;;;;;-0.21;100.00;100547.56;7368435;19;20675;-44
2023/12/08 10:15:30;;;;;;;37.80;15.35;;;;;;;-0.23;100.00;100528.81;7392231;19;20237;-43
2023/12/08 10:18:00;;;;;;;34.53;15.80;;;;;;;-0.24;100.00;100528.69;7369020;19;20278;-42
2023/12/08 10:20:30;;;;;;;38.45;16.52;;;;;;;-0.23;100.00;100523.75;7388854;19;20139;-43
2023/12/08 10:22:59;;;;;;;35.22;16.20;;;;;;;-0.20;100.00;100525.63;7368994;19;20198;-44
2023/12/08 10:25:32;;;;;;;33.70;14.80;;;;;;;-0.24;100.00;100526.13;7391633;19;20194;-42
2023/12/08 10:28:04;;;;;;;41.55;15.50;;;;;;;-0.25;100.00;100525.28;7375194;19;20665;-43
2023/12/08 10:30:34;;;;;;;34.47;15.32;;;;;;;-0.27;100.00;100529.31;7397335;19;20266;-41
2023/12/08 10:33:04;;;;;;;33.85;14.25;;;;;;;-0.19;100.00;100540.09;7374697;19;20190;-41
2023/12/08 10:35:34;;;;;;;31.85;14.90;;;;;;;-0.18;100.00;100545.28;7394322;19;20171;-41
2023/12/08 10:38:04;;;;;;;38.70;16.15;;;;;;;-0.04;100.00;100543.00;7370499;19;20190;-41
2023/12/08 10:40:34;;;;;;;37.97;16.05;;;;;;;0.13;100.00;100540.16;7389255;19;20145;-42
2023/12/08 10:43:07;;;;;;;45.35;16.25;;;;;;;0.06;100.00;100549.69;7368431;19;20213;-44
2023/12/08 10:45:40;;;;;;;37.72;17.10;;;;;;;0.12;100.00;100533.28;7389729;19;20166;-43
2023/12/08 10:48:10;;;;;;;33.33;13.50;;;;;;;0.01;100.00;100538.28;7370289;19;20196;-43
2023/12/08 10:50:42;;;;;;;40.67;16.45;;;;;;;0.08;100.00;100530.38;7387699;19;20143;-43
2023/12/08 10:53:12;;;;;;;73.47;27.25;;;;;;;0.20;100.00;100536.44;7367927;19;20695;-42
2023/12/08 10:55:41;;;;;;;47.53;18.95;;;;;;;0.39;100.00;100528.66;7388272;19;20242;-45
2023/12/08 10:58:15;;;;;;;46.40;18.08;;;;;;;0.40;100.00;100527.88;7367798;19;20189;-44
2023/12/08 11:00:45;;;;;;;33.85;14.45;;;;;;;0.35;100.00;100530.81;7389984;19;20182;-42
2023/12/08 11:03:19;;;;;;;34.58;15.02;;;;;;;0.23;100.00;100518.94;7368252;19;20254;-45
2023/12/08 11:05:57;;;;;;;43.05;16.55;;;;;;;0.15;100.00;100521.63;7389123;19;20227;-44
2023/12/08 11:08:28;;;;;;;58.75;21.98;;;;;;;0.39;100.00;100525.22;7367471;19;20192;-42
2023/12/08 11:10:59;;;;;;;48.15;19.42;;;;;;;0.32;100.00;100521.34;7388994;19;20242;-44
2023/12/08 11:13:32;;;;;;;48.33;18.08;;;;;;;0.42;100.00;100524.56;7369111;19;20241;-43
2023/12/08 11:16:14;;;;;;;34.53;15.30;;;;;;;0.39;100.00;100528.66;7390259;19;20206;-43